Tiempo atmosférico en la estación meteorológica de Rivilla De Barajas, Ávila (925 m.)



Fecha
DESCASC
Temp. máxima en grados centígrados (hora)
DESCASC
Temp. mínima en grados centígrados (hora)
DESCASC
Temp. media en grados centígrados
DESCASC
Racha de viento máxima en m/sg (hora)
DESCASC
Velocidad máxima media en intervalos de 10 minutos(hora)
DESCASC
Precipitaciones diarias en mm
DESCASC
Precipitaciones de 00:00 a 06:00 en mm
DESCASC
Precipitaciones de 06:00 a 12:00 en mm
DESCASC
Precipitaciones de 12:00 a 18:00 en mm
DESCASC
Precipitaciones de 18:00 a 24:00 en mm
DESCASC
27-10-2020 12.2 (16:00) 3.8 (06:10) 8 10.83 (12:30) 8.06 (12:30) 0 0 0 0 0
26-10-2020 9.4 (15:10) 3.9 (07:40) 6.6 10.83 (09:30) 8.61 (09:20) 0 0 0 0 0
25-10-2020 15.1 (13:40) 5.4 (22:30) 10.3 19.72 (11:50) 12.78 (19:30) 2.8 0 0 2.4 0.4
24-10-2020 14.6 (15:50) 5.1 (00:00) 9.9 10.83 (22:00) 6.94 (20:30) 0 0 0 0 0
23-10-2020 12.3 (17:50) 7.2 (00:00) 9.8 8.89 (13:30) 5.28 (13:30) 5 2.6 0.4 2 0
22-10-2020 15 (17:20) 8.7 (00:00) 11.8 11.11 (23:50) 7.22 (18:20) 8.4 3 0 1 4.4
21-10-2020 16.9 (17:40) 9.2 (00:00) 13 12.22 (15:30) 7.22 (00:40) 6.6 2.2 0.4 0 4
20-10-2020 18.2 (01:00) 12.7 (00:00) 15.5 21.39 (18:40) 10.56 (18:50) 8.2 0.4 0 1 6.8
19-10-2020 23.9 (15:40) 7.8 (00:00) 15.8 16.39 (14:00) 9.44 (14:40) 0 0 0 0 0
18-10-2020 20.5 (16:00) 6.2 (00:00) 13.3 6.39 (17:10) 4.17 (17:50) 0 0 0 0 0
17-10-2020 17.8 (16:20) 5 (00:00) 11.4 9.17 (13:30) 5.83 (12:30) 0 0 0 0 0
16-10-2020 12.8 (16:40) 0.6 (00:00) 6.7 7.78 (11:40) 4.72 (11:30) 0 0 0 0 0
15-10-2020 13.6 (18:20) 2.2 (00:00) 7.9 7.5 (21:50) 5.56 (21:50) 0 0 0 0 0
14-10-2020 14.6 (17:00) 2.9 (00:00) 8.8 8.89 (16:50) 6.39 (18:30) 0 0 0 0 0
13-10-2020 19.7 (16:40) 8.4 (00:00) 14.1 12.5 (17:20) 8.61 (16:50) 0 0 0 0 0
12-10-2020 14.2 (16:30) 2.8 (00:00) 8.5 8.61 (12:00) 5.83 (12:00) 0 0 0 0 0
11-10-2020 14.5 (17:10) 3.5 (00:00) 9 9.17 (14:10) 6.11 (11:20) 0 0 0 0 0
10-10-2020 19.8 (15:50) 7.1 (00:00) 13.4 10.28 (19:10) 7.5 (18:50) 0 0 0 0 0
09-10-2020 23.6 (16:10) 11.1 (00:00) 17.4 7.5 (16:00) 4.44 (17:20) 0 0 0 0 0
08-10-2020 25.4 (16:50) 10.8 (00:00) 18.1 9.44 (18:00) 6.11 (17:20) 0 0 0 0 0
07-10-2020 22.4 (17:40) 10.1 (00:00) 16.3 7.22 (15:10) 4.17 (02:00) 0 0 0 0 0
06-10-2020 21.9 (16:00) 12.1 (00:00) 17 11.11 (13:10) 7.22 (12:50) 0 0 0 0 0
05-10-2020 16.2 (17:00) 6.7 (00:00) 11.5 11.39 (16:50) 8.33 (17:10) 0 0 0 0 0
04-10-2020 15.3 (16:30) 6.8 (00:00) 11.1 16.11 (10:20) 11.67 (15:10) 0.2 0 0.2 0 0
03-10-2020 12.8 (16:40) 4.3 (00:00) 8.6 15 (16:40) 10 (14:10) 0 0 0 0 0
02-10-2020 13.9 (04:30) 5.7 (00:00) 9.8 21.11 (06:00) 14.44 (10:30) 10.2 0 10 0.2 0
01-10-2020 18 (17:00) 9 (00:00) 13.5 12.5 (19:00) 10 (19:00) 0 0 0 0 0
30-09-2020 24.4 (17:00) 11.6 (00:00) 18 10 (18:00) 6.94 (18:00) 0 0 0 0 0

Gráficas

Temp. máximas Temp. mínimas Temp. medias Precipitaciones Rachas de viento máximas Velocidades máximas media en intervalos de 10 minutos

Datos horarios

Fecha y hora oficial Temperatura (ºC) Velocidad del viento (km/h) Dirección del viento Racha (km/h) Dirección de racha Precipitación (mm) Presión (hPa) Tendencia (hPa) Humedad (%)
2020-10-29 23:00:00 9.8 4 Sudoeste 6 Sudoeste 0 -- -- 80
2020-10-29 22:00:00 10.7 4 Sur 5 Sur 0 -- -- 77
2020-10-29 21:00:00 10.1 3 Sur 6 Sur 0 -- -- 80
2020-10-29 20:00:00 11.9 3 Sur 4 Sur 0 -- -- 73
2020-10-29 19:00:00 13.9 0 Calma 3 Oeste 0 -- -- 63
2020-10-29 18:00:00 15.9 3 Oeste 9 Oeste 0 -- -- 57
2020-10-29 17:00:00 16.7 8 Oeste 13 Oeste 0 -- -- 54
2020-10-29 16:00:00 16.9 6 Oeste 15 Oeste 0 -- -- 51
2020-10-29 15:00:00 16.6 4 Sudoeste 13 Sudoeste 0 -- -- 54
2020-10-29 14:00:00 15.9 3 Sur 14 Nordeste 0 -- -- 60
2020-10-29 13:00:00 14.4 3 Noroeste 10 Sudeste 0 -- -- 67
2020-10-29 12:00:00 12.3 5 Nordeste 15 Norte 0 -- -- 75
2020-10-29 11:00:00 11.7 3 Noroeste 8 Noroeste 0 -- -- 80
2020-10-29 10:00:00 10.1 5 Sudeste 14 Sudeste 0 -- -- 85
2020-10-29 09:00:00 8.5 6 Sudeste 12 Sudeste 0 -- -- 91
2020-10-29 08:00:00 7.9 4 Sur 7 Sur 0 -- -- 94
2020-10-29 07:00:00 8.4 3 Sur 5 Sur 0 -- -- 94
2020-10-29 06:00:00 8.8 3 Sudeste 9 Sudeste 0 -- -- 95
2020-10-29 05:00:00 9.2 2 Sudeste 6 Sudeste 0 -- -- 95
2020-10-29 04:00:00 9.3 2 Sudeste 6 Sudeste 0 -- -- 94
2020-10-29 03:00:00 9.4 3 Sudeste 5 Sudeste 0 -- -- 93
2020-10-29 02:00:00 9.5 0 Calma 7 Sudoeste 0 -- -- 95
2020-10-29 01:00:00 8.9 4 Sudoeste 9 Sudoeste 0 -- -- 97
2020-10-29 00:00:00 7.7 5 Sudoeste 10 Sudoeste 0 -- -- 94
2020-10-28 23:00:00 8.6 4 Sudoeste 12 Sudoeste 0 -- -- 92
2020-10-28 22:00:00 9 10 Sudoeste 13 Sudoeste 0 -- -- 90
2020-10-28 21:00:00 9.4 9 Sudoeste 12 Oeste 0 -- -- 92
2020-10-28 20:00:00 10.6 6 Oeste 10 Oeste 0 -- -- 87
2020-10-28 19:00:00 12.4 8 Oeste 16 Oeste 0 -- -- 81
2020-10-28 18:00:00 13.9 10 Oeste 28 Oeste 0 -- -- 71
2020-10-28 17:00:00 15.2 21 Oeste 30 Oeste 0 -- -- 70
2020-10-28 16:00:00 15.8 21 Oeste 31 Sudoeste 0 -- -- 70
2020-10-28 15:00:00 15.3 19 Noroeste 37 Oeste 0 -- -- 80
2020-10-28 14:00:00 14.8 24 Oeste 37 Oeste 0 -- -- 79
2020-10-28 13:00:00 14.6 22 Oeste 36 Oeste 0 -- -- 84
2020-10-28 12:00:00 13.5 22 Oeste 33 Sudoeste 0 -- -- 90
2020-10-28 11:00:00 12.1 19 Oeste 30 Oeste 0.2 -- -- 96
2020-10-28 10:00:00 11.6 14 Sudoeste 22 Oeste 0 -- -- 97
2020-10-28 09:00:00 11 8 Oeste 12 Oeste 0 -- -- 98
2020-10-28 08:00:00 10.4 8 Sudoeste 15 Sudoeste 0 -- -- 98
2020-10-28 07:00:00 10.2 9 Sudoeste 16 Oeste 0 -- -- 97
2020-10-28 06:00:00 10.4 8 Oeste 16 Sudoeste 0 -- -- 97
2020-10-28 05:00:00 9.9 11 Sudoeste 19 Oeste 0 -- -- 97
2020-10-28 04:00:00 9.9 10 Sudoeste 18 Sudoeste 0.4 -- -- 96
2020-10-28 03:00:00 9.6 12 Sudoeste 20 Sudoeste 0 -- -- 94
2020-10-28 02:00:00 9.4 12 Sudoeste 22 Oeste 0 -- -- 91
2020-10-28 01:00:00 9.9 14 Sudoeste 23 Sudoeste 0 -- -- 91
2020-10-28 00:00:00 9.1 4 Sudoeste 7 Sudoeste 0 -- -- 94
2020-10-27 23:00:00 9 4 Sudoeste 12 Sudoeste 0 -- -- 92
2020-10-27 22:00:00 9.1 5 Sudoeste 14 Sudoeste 0 -- -- 91
2020-10-27 21:00:00 9.3 8 Sudoeste 18 Sudoeste 0 -- -- 89
2020-10-27 20:00:00 9.9 10 Sudoeste 20 Sudoeste 0 -- -- 83
2020-10-27 19:00:00 10.3 9 Oeste 19 Oeste 0 -- -- 81
2020-10-27 18:00:00 10.8 8 Oeste 20 Oeste 0 -- -- 78
2020-10-27 17:00:00 11.5 9 Oeste 26 Oeste 0 -- -- 73
2020-10-27 16:00:00 12.2 15 Oeste 29 Oeste 0 -- -- 69
2020-10-27 15:00:00 11.4 23 Oeste 31 Noroeste 0 -- -- 72
2020-10-27 14:00:00 10.4 21 Oeste 35 Oeste 0 -- -- 78
2020-10-27 13:00:00 10.4 26 Oeste 39 Oeste 0 -- -- 75
2020-10-27 12:00:00 9.7 22 Oeste 36 Oeste 0 -- -- 78
2020-10-27 11:00:00 9 15 Oeste 30 Oeste 0 -- -- 79
2020-10-27 10:00:00 7.9 17 Oeste 28 Oeste 0 -- -- 83
2020-10-27 09:00:00 6.3 12 Oeste 20 Oeste 0 -- -- 86
2020-10-27 08:00:00 4.8 10 Sudoeste 19 Sudoeste 0 -- -- 91
2020-10-27 07:00:00 4 11 Sudoeste 18 Sudoeste 0 -- -- 92
2020-10-27 06:00:00 3.9 11 Sudoeste 22 Oeste 0 -- -- 92
2020-10-27 05:00:00 4.3 15 Sudoeste 26 Oeste 0 -- -- 92
2020-10-27 04:00:00 4.3 15 Sudoeste 25 Oeste 0 -- -- 92
2020-10-27 03:00:00 4.3 13 Oeste 21 Oeste 0 -- -- 92
2020-10-27 02:00:00 4.4 13 Oeste 21 Sudoeste 0 -- -- 91
2020-10-27 01:00:00 4.4 13 Sudoeste 21 Oeste 0 -- -- 90
2020-10-27 00:00:00 4.7 13 Oeste 22 Oeste 0 -- -- 87
2020-10-26 23:00:00 4.9 10 Oeste 20 Sudoeste 0 -- -- 86
2020-10-26 22:00:00 5.4 15 Sudoeste 21 Oeste 0 -- -- 83
2020-10-26 21:00:00 5.7 9 Sudoeste 14 Oeste 0 -- -- 82
2020-10-26 20:00:00 6.2 9 Oeste 23 Sudoeste 0 -- -- 78
2020-10-26 19:00:00 7.6 14 Oeste 22 Oeste 0 -- -- 72
2020-10-26 18:00:00 7.8 18 Oeste 31 Oeste 0 -- -- 73
2020-10-26 17:00:00 8.6 22 Oeste 37 Oeste 0 -- -- 67
2020-10-26 16:00:00 8.9 26 Oeste 35 Oeste 0 -- -- 68
2020-10-26 15:00:00 8.6 24 Noroeste 36 Oeste 0 -- -- 68
2020-10-26 14:00:00 8.1 23 Oeste 33 Oeste 0 -- -- 70
2020-10-26 13:00:00 7.9 22 Oeste 32 Noroeste 0 -- -- 75
2020-10-26 12:00:00 7.4 22 Oeste 34 Oeste 0 -- -- 74
2020-10-26 11:00:00 5.5 27 Oeste 36 Oeste 0 -- -- 81
2020-10-26 10:00:00 5.6 27 Oeste 39 Oeste 0 -- -- 86
2020-10-26 09:00:00 4.7 29 Oeste 38 Oeste 0 -- -- 88
2020-10-26 08:00:00 4.1 25 Oeste 36 Oeste 0 -- -- 92
2020-10-26 07:00:00 4.4 24 Oeste 35 Oeste 0 -- -- 91
2020-10-26 06:00:00 4.2 22 Oeste 33 Oeste 0 -- -- 95
2020-10-26 05:00:00 4.4 23 Oeste 35 Oeste 0 -- -- 94
2020-10-26 04:00:00 5 18 Oeste 35 Oeste 0 -- -- 92
2020-10-26 03:00:00 4.9 23 Oeste 35 Oeste 0 -- -- 91
2020-10-26 02:00:00 5.1 18 Oeste 28 Oeste 0 -- -- 93
2020-10-26 01:00:00 5.9 17 Oeste 27 Oeste 0 -- -- 92
2020-10-26 00:00:00 6 15 Oeste 24 Oeste 0 -- -- 90
2020-10-25 23:00:00 5.5 8 Oeste 17 Sudoeste 0 -- -- 92
2020-10-25 22:00:00 5.7 11 Oeste 27 Oeste 0 -- -- 91
2020-10-25 21:00:00 6.4 19 Oeste 41 Oeste 0.4 -- -- 94
2020-10-25 20:00:00 6.6 30 Oeste 65 Noroeste 0 -- -- 90
2020-10-25 19:00:00 9.4 24 Oeste 46 Oeste 0 -- -- 83
2020-10-25 18:00:00 9.9 31 Oeste 48 Oeste 0 -- -- 87
2020-10-25 17:00:00 11.1 33 Oeste 53 Oeste 0 -- -- 89
2020-10-25 16:00:00 11.1 36 Oeste 59 Oeste 2 -- -- 93
2020-10-25 15:00:00 12.4 36 Oeste 63 Sudoeste 0.4 -- -- 83
2020-10-25 14:00:00 14.8 40 Oeste 66 Oeste 0 -- -- 70
2020-10-25 13:00:00 14.5 39 Sudoeste 70 Oeste 0 -- -- 71
2020-10-25 12:00:00 13.7 40 Sudoeste 71 Oeste 0 -- -- 75
2020-10-25 11:00:00 13.6 34 Sudoeste 58 Oeste 0 -- -- 71
2020-10-25 10:00:00 12.5 23 Sudoeste 47 Sudoeste 0 -- -- 72
2020-10-25 09:00:00 11.5 17 Sudoeste 40 Sudoeste 0 -- -- 76
2020-10-25 08:00:00 10.4 17 Sudoeste 54 Sudoeste 0 -- -- 78
2020-10-25 07:00:00 11 27 Sudoeste 46 Sudoeste 0 -- -- 82
2020-10-25 06:00:00 11 16 Oeste 35 Sudoeste 0 -- -- 79
2020-10-25 05:00:00 10.5 18 Sudoeste 31 Sudoeste 0 -- -- 80
2020-10-25 04:00:00 10.3 12 Oeste 22 Oeste 0 -- -- 80
2020-10-25 03:00:00 10.5 12 Sudoeste 34 Sudoeste 0 -- -- 77
2020-10-25 02:00:00 10.2 20 Oeste 35 Sudoeste 0 -- -- 80
2020-10-25 01:00:00 10.1 25 Sudoeste 39 Sudoeste 0 -- -- 78
2020-10-25 00:00:00 10.2 17 Sudoeste 35 Sudoeste 0 -- -- 80
2020-10-24 23:00:00 10.5 20 Sudoeste 37 Sudoeste 0 -- -- 80
2020-10-24 22:00:00 10.2 24 Sudoeste 39 Oeste 0 -- -- 81
2020-10-24 21:00:00 9.8 21 Sudoeste 38 Oeste 0 -- -- 83
2020-10-24 20:00:00 9.1 23 Oeste 38 Sudoeste 0 -- -- 84
2020-10-24 19:00:00 10.5 19 Oeste 35 Oeste 0 -- -- 79
2020-10-24 18:00:00 12.7 22 Oeste 38 Oeste 0 -- -- 69
2020-10-24 17:00:00 14 22 Oeste 32 Oeste 0 -- -- 62
2020-10-24 16:00:00 14.5 19 Oeste 31 Oeste 0 -- -- 58
2020-10-24 15:00:00 13.4 19 Oeste 30 Oeste 0 -- -- 65
2020-10-24 14:00:00 12 15 Oeste 26 Oeste 0 -- -- 73
2020-10-24 13:00:00 11.2 12 Oeste 21 Oeste 0 -- -- 77
2020-10-24 12:00:00 9.6 10 Oeste 23 Oeste 0 -- -- 82
2020-10-24 11:00:00 9.1 13 Oeste 19 Oeste 0 -- -- 85
2020-10-24 10:00:00 7 5 Sudoeste 9 Sudoeste 0 -- -- 97
2020-10-24 09:00:00 5.3 6 Sudoeste 9 Oeste 0 -- -- 97
2020-10-24 08:00:00 5.9 0 Calma 8 Sudoeste 0 -- -- 94
2020-10-24 07:00:00 7.3 4 Sudoeste 10 Sur 0 -- -- 93
2020-10-24 06:00:00 7.4 4 Sudoeste 9 Sudoeste 0 -- -- 95
2020-10-24 05:00:00 6.9 4 Sudoeste 8 Sudoeste 0 -- -- 94
2020-10-24 04:00:00 7.8 5 Sudoeste 13 Oeste 0 -- -- 94
2020-10-24 03:00:00 7.8 6 Sudoeste 10 Sudoeste 0 -- -- 93
2020-10-24 02:00:00 8 6 Sudoeste 13 Sudoeste 0 -- -- 94
2020-10-24 01:00:00 7.8 8 Oeste 16 Sudoeste 0 -- -- 92
2020-10-24 00:00:00 7.9 10 Sudoeste 17 Sudoeste 0 -- -- 91
2020-10-23 23:00:00 8 10 Sudoeste 15 Sudoeste 0 -- -- 91
2020-10-23 22:00:00 8.4 10 Sudoeste 15 Sudoeste 0 -- -- 90
2020-10-23 21:00:00 9 9 Sudoeste 13 Sudoeste 0 -- -- 87
2020-10-23 20:00:00 9.8 9 Oeste 19 Oeste 0 -- -- 82
2020-10-23 19:00:00 11.1 11 Oeste 21 Oeste 0 -- -- 79
2020-10-23 18:00:00 12.2 11 Sudoeste 24 Oeste 0 -- -- 76
2020-10-23 17:00:00 11.6 16 Sudoeste 27 Oeste 0 -- -- 79
2020-10-23 16:00:00 11.8 15 Oeste 28 Oeste 0 -- -- 76
2020-10-23 15:00:00 10.6 12 Oeste 23 Noroeste 0.4 -- -- 86
2020-10-23 14:00:00 9.7 15 Noroeste 32 Oeste 1.6 -- -- 88
2020-10-23 13:00:00 10.2 15 Oeste 28 Sudoeste 0 -- -- 83
2020-10-23 12:00:00 10.2 18 Oeste 26 Oeste 0 -- -- 83
2020-10-23 11:00:00 9.2 16 Oeste 27 Oeste 0 -- -- 89
2020-10-23 10:00:00 8 13 Oeste 24 Oeste 0 -- -- 94
2020-10-23 09:00:00 7.9 9 Sudoeste 17 Sudoeste 0 -- -- 98
2020-10-23 08:00:00 7.8 10 Oeste 19 Oeste 0.4 -- -- 97
2020-10-23 07:00:00 7.6 12 Oeste 23 Oeste 0 -- -- 95
2020-10-23 06:00:00 7.7 10 Sudoeste 19 Sudoeste 0 -- -- 94
2020-10-23 05:00:00 7.2 9 Sudoeste 17 Sudoeste 0 -- -- 94
2020-10-23 04:00:00 7.6 11 Sudoeste 22 Sudoeste 0 -- -- 92
2020-10-23 03:00:00 7.9 10 Sudoeste 22 Oeste 0.2 -- -- 94
2020-10-23 02:00:00 7.9 10 Sudoeste 21 Sudoeste 0 -- -- 93
2020-10-23 01:00:00 7.8 8 Sudoeste 27 Sudoeste 2.4 -- -- 91
2020-10-23 00:00:00 8.7 13 Sudoeste 40 Sudoeste 3.8 -- -- 91
2020-10-22 23:00:00 10.3 8 Sudoeste 21 Oeste 0 -- -- 87
2020-10-22 22:00:00 10.6 13 Oeste 21 Sudoeste 0 -- -- 88
2020-10-22 21:00:00 10.5 8 Sudoeste 14 Sudoeste 0 -- -- 90
2020-10-22 20:00:00 10.7 5 Sudoeste 30 Sudoeste 0.4 -- -- 91
2020-10-22 19:00:00 11.1 19 Oeste 35 Oeste 0.2 -- -- 86
2020-10-22 18:00:00 13.9 19 Oeste 27 Oeste 0 -- -- 76
2020-10-22 17:00:00 14.3 7 Sur 13 Sur 0 -- -- 78
2020-10-22 16:00:00 12.8 6 Sur 18 Oeste 0.8 -- -- 79
2020-10-22 15:00:00 13.9 8 Noroeste 12 Noroeste 0 -- -- 80
2020-10-22 14:00:00 13.3 5 Norte 10 Nordeste 0.2 -- -- 84
2020-10-22 13:00:00 13.2 4 Norte 13 Nordeste 0 -- -- 82
2020-10-22 12:00:00 12.4 3 Norte 9 Noroeste 0 -- -- 90
2020-10-22 11:00:00 10.7 0 Calma 12 Oeste 0 -- -- 95
2020-10-22 10:00:00 8.9 12 Oeste 14 Oeste 0 -- -- 97
2020-10-22 09:00:00 8.9 2 Oeste 7 Sudeste 0 -- -- 96
2020-10-22 08:00:00 9.1 5 Sudeste 7 Sudeste 0 -- -- 96
2020-10-22 07:00:00 9.2 2 Sudoeste 8 Sudeste 0 -- -- 97
2020-10-22 06:00:00 9.5 5 Sudeste 8 Sur 0.4 -- -- 97
2020-10-22 05:00:00 9.8 0 Calma 7 Sudoeste 0.6 -- -- 96
2020-10-22 04:00:00 9.9 4 Sudoeste 10 Sur 0.6 -- -- 95
2020-10-22 03:00:00 9.8 2 Sudeste 6 Sudeste 0 -- -- 95
2020-10-22 02:00:00 9.9 0 Calma 20 Sudeste 0.8 -- -- 94
2020-10-22 01:00:00 9.8 0 Calma 11 Sudeste 0.6 -- -- 93
2020-10-22 00:00:00 10.2 5 Sur 16 Sur 1.4 -- -- 90
2020-10-21 23:00:00 10.6 6 Sur 14 Sur 2 -- -- 90
2020-10-21 22:00:00 10.8 8 Sudoeste 15 Sudoeste 0.6 -- -- 92
2020-10-21 21:00:00 10.9 3 Norte 11 Oeste 0 -- -- 83
2020-10-21 20:00:00 12.9 2 Sur 13 Sudoeste 0 -- -- 67
2020-10-21 19:00:00 14.6 7 Sudoeste 29 Sudoeste 0 -- -- 60
2020-10-21 18:00:00 16.3 16 Sudoeste 35 Sudoeste 0 -- -- 52
2020-10-21 17:00:00 16.3 20 Sudoeste 38 Sudoeste 0 -- -- 50
2020-10-21 16:00:00 16 23 Sudoeste 44 Oeste 0 -- -- 55
2020-10-21 15:00:00 15.5 21 Sudoeste 40 Sudoeste 0 -- -- 66
2020-10-21 14:00:00 15.5 15 Sudoeste 30 Sudoeste 0 -- -- 72
2020-10-21 13:00:00 14 13 Oeste 23 Sudoeste 0 -- -- 82
2020-10-21 12:00:00 13.6 12 Oeste 21 Oeste 0 -- -- 82
2020-10-21 11:00:00 11.8 11 Oeste 22 Sudoeste 0.2 -- -- 91
2020-10-21 10:00:00 11.2 12 Sudoeste 20 Sudoeste 0.2 -- -- 90
2020-10-21 09:00:00 10 8 Sudoeste 21 Sudoeste 0 -- -- 88
2020-10-21 08:00:00 10.8 11 Sudoeste 21 Sudoeste 0 -- -- 85
2020-10-21 07:00:00 10.9 12 Sudoeste 21 Sudoeste 0 -- -- 88
2020-10-21 06:00:00 9.4 6 Sudoeste 12 Oeste 0 -- -- 89
2020-10-21 05:00:00 9.9 4 Sur 20 Sudoeste 0 -- -- 88
2020-10-21 04:00:00 11.3 12 Sudoeste 28 Sudoeste 0 -- -- 84
2020-10-21 03:00:00 11.5 13 Sudoeste 31 Sudoeste 0 -- -- 79
2020-10-21 02:00:00 12.1 17 Sudoeste 42 Sudoeste 0 -- -- 79
2020-10-21 01:00:00 12 16 Sudoeste 39 Sudoeste 2.2 -- -- 92
2020-10-21 00:00:00 13 20 Sudoeste 37 Sudoeste 5.4 -- -- 94
2020-10-20 23:00:00 13.2 8 Sudoeste 45 Sur 1 -- -- 89
2020-10-20 22:00:00 14.3 21 Sur 58 Sudoeste 0.4 -- -- 81
2020-10-20 21:00:00 14.9 31 Sur 60 Sudoeste 0 -- -- 74
2020-10-20 20:00:00 15.5 32 Sur 67 Sur 0 -- -- 70
2020-10-20 19:00:00 15.5 29 Sur 77 Sur 0 -- -- 69
2020-10-20 18:00:00 15.6 24 Sur 59 Sudeste 0.2 -- -- 73
2020-10-20 17:00:00 15.8 26 Sur 55 Sur 0 -- -- 73
2020-10-20 16:00:00 16.2 22 Sur 56 Sur 0.2 -- -- 75
2020-10-20 15:00:00 14.5 13 Sudeste 30 Sudeste 0 -- -- 87
2020-10-20 14:00:00 14.4 12 Sur 22 Sudeste 0.4 -- -- 83
2020-10-20 13:00:00 13.4 18 Sudeste 27 Sur 0.2 -- -- 84
2020-10-20 12:00:00 13.7 13 Sur 34 Sur 0 -- -- 78
2020-10-20 11:00:00 13.6 20 Sur 34 Sur 0 -- -- 77
2020-10-20 10:00:00 14.1 11 Sudeste 23 Sudoeste 0 -- -- 74
2020-10-20 09:00:00 14.5 11 Sur 22 Sudoeste 0 -- -- 73
2020-10-20 08:00:00 14 6 Sur 26 Sur 0 -- -- 77
2020-10-20 07:00:00 13.4 12 Sur 29 Sur 0 -- -- 77
2020-10-20 06:00:00 12.7 14 Sur 40 Sudoeste 0.4 -- -- 78
2020-10-20 05:00:00 15.2 19 Sur 48 Sur 0 -- -- 59
2020-10-20 04:00:00 15.3 14 Sur 34 Sur 0 -- -- 60
2020-10-20 03:00:00 16.6 18 Sur 45 Sur 0 -- -- 49
2020-10-20 02:00:00 17.3 16 Sur 55 Sudoeste 0 -- -- 43
2020-10-20 01:00:00 18.2 27 Sudoeste 54 Sur 0 -- -- 39
2020-10-20 00:00:00 17.2 11 Sudoeste 41 Sur 0 -- -- 43
2020-10-19 23:00:00 18.6 23 Sur 45 Sur 0 -- -- 39
2020-10-19 22:00:00 18.8 8 Sur 28 Sur 0 -- -- 34
2020-10-19 21:00:00 18.6 8 Sur 23 Sur 0 -- -- 34
2020-10-19 20:00:00 18.5 9 Sur 28 Sur 0 -- -- 35
2020-10-19 19:00:00 19.1 17 Sur 44 Sur 0 -- -- 33
2020-10-19 18:00:00 19.5 21 Sur 43 Sur 0 -- -- 32
2020-10-19 17:00:00 21.1 16 Sur 44 Sudoeste 0 -- -- 31
2020-10-19 16:00:00 23.1 25 Sudoeste 59 Sudoeste 0 -- -- 27
2020-10-19 15:00:00 23.4 33 Sudoeste 56 Sudoeste 0 -- -- 27
2020-10-19 14:00:00 23.3 30 Sudoeste 59 Sudoeste 0 -- -- 27
2020-10-19 13:00:00 22.3 15 Sudoeste 32 Sur 0 -- -- 29
2020-10-19 12:00:00 19.9 9 Noroeste 23 Sudoeste 0 -- -- 33
2020-10-19 11:00:00 18.5 12 Sur 23 Sudoeste 0 -- -- 33
2020-10-19 10:00:00 13.6 9 Sudeste 16 Sudeste 0 -- -- 47
2020-10-19 09:00:00 9.1 5 Sur 10 Sur 0 -- -- 55
2020-10-19 08:00:00 8.7 0 Calma 12 Sudeste 0 -- -- 53
2020-10-19 07:00:00 9.9 9 Sudeste 14 Sudeste 0 -- -- 48
2020-10-19 06:00:00 7.8 0 Calma 6 Nordeste 0 -- -- 53
2020-10-19 05:00:00 9 0 Calma 10 Sudeste 0 -- -- 50
2020-10-19 04:00:00 11.6 6 Sudeste 18 Sudeste 0 -- -- 43
2020-10-19 03:00:00 10.1 5 Sudeste 9 Sudeste 0 -- -- 45
2020-10-19 02:00:00 9.9 3 Sudeste 12 Sudeste 0 -- -- 48
2020-10-19 01:00:00 11.6 8 Sudeste 16 Sur 0 -- -- 44
2020-10-19 00:00:00 12 7 Sur 17 Sur 0 -- -- 44
2020-10-18 23:00:00 11.4 9 Sudeste 17 Sudeste 0 -- -- 48
2020-10-18 22:00:00 12.2 4 Sudeste 14 Sudeste 0 -- -- 47
2020-10-18 21:00:00 13.7 7 Sudeste 18 Sudeste 0 -- -- 45
2020-10-18 20:00:00 14.7 12 Sudeste 18 Sudeste 0 -- -- 43
2020-10-18 19:00:00 16.9 14 Sudeste 19 Sudeste 0 -- -- 39
2020-10-18 18:00:00 18.7 14 Sudeste 23 Sudeste 0 -- -- 33
2020-10-18 17:00:00 19.9 14 Sudeste 20 Sudeste 0 -- -- 32
2020-10-18 16:00:00 20.5 8 Este 23 Este 0 -- -- 32
2020-10-18 15:00:00 19.5 8 Este 13 Este 0 -- -- 33
2020-10-18 14:00:00 18 3 Este 12 Este 0 -- -- 37
2020-10-18 13:00:00 16.7 4 Este 10 Este 0 -- -- 41
2020-10-18 12:00:00 14.7 5 Norte 10 Oeste 0 -- -- 47
2020-10-18 11:00:00 12.7 4 Noroeste 7 Noroeste 0 -- -- 50
2020-10-18 10:00:00 9.2 4 Sudoeste 12 Sudoeste 0 -- -- 61
2020-10-18 09:00:00 6.2 2 Sudoeste 8 Sudoeste 0 -- -- 66
2020-10-18 08:00:00 6.8 0 Calma 8 Sudeste 0 -- -- 62
2020-10-18 07:00:00 7.8 3 Sudeste 8 Sur 0 -- -- 60
2020-10-18 06:00:00 7.9 0 Calma 7 Sudoeste 0 -- -- 61
2020-10-18 05:00:00 8.9 4 Sur 9 Sudeste 0 -- -- 56
2020-10-18 04:00:00 9.3 4 Sur 8 Sur 0 -- -- 56
2020-10-18 03:00:00 9.9 6 Sur 10 Sur 0 -- -- 57
2020-10-18 02:00:00 8.8 5 Sudoeste 8 Sudoeste 0 -- -- 60
2020-10-18 01:00:00 9.3 4 Sudoeste 9 Sudoeste 0 -- -- 58
2020-10-18 00:00:00 9.1 7 Sudoeste 9 Sudoeste 0 -- -- 59
2020-10-17 23:00:00 9.5 6 Sudoeste 14 Sudoeste 0 -- -- 57
2020-10-17 22:00:00 11.2 4 Sur 6 Sur 0 -- -- 50
2020-10-17 21:00:00 12.8 0 Calma 4 Norte 0 -- -- 46
2020-10-17 20:00:00 13.9 4 Norte 12 Noroeste 0 -- -- 43
2020-10-17 19:00:00 16.3 10 Noroeste 16 Norte 0 -- -- 38
2020-10-17 18:00:00 17.5 10 Noroeste 19 Noroeste 0 -- -- 34
2020-10-17 17:00:00 17.7 14 Noroeste 23 Oeste 0 -- -- 32
2020-10-17 16:00:00 17.5 10 Oeste 24 Oeste 0 -- -- 33
2020-10-17 15:00:00 16.7 15 Oeste 27 Oeste 0 -- -- 34
2020-10-17 14:00:00 15.8 15 Oeste 33 Oeste 0 -- -- 36
2020-10-17 13:00:00 14.8 19 Oeste 28 Oeste 0 -- -- 40
2020-10-17 12:00:00 13.3 14 Oeste 23 Oeste 0 -- -- 45
2020-10-17 11:00:00 11.3 10 Oeste 15 Sudoeste 0 -- -- 54
2020-10-17 10:00:00 8.7 8 Sudoeste 14 Sudoeste 0 -- -- 59
2020-10-17 09:00:00 7.5 7 Noroeste 12 Sudoeste 0 -- -- 62
2020-10-17 08:00:00 7.7 6 Sudoeste 13 Sudoeste 0 -- -- 61
2020-10-17 07:00:00 7.1 6 Sudoeste 11 Sudoeste 0 -- -- 64
2020-10-17 06:00:00 6.5 6 Sudoeste 9 Sudoeste 0 -- -- 66
2020-10-17 05:00:00 7.1 3 Sudoeste 8 Sudoeste 0 -- -- 62
2020-10-17 04:00:00 6.4 4 Sudoeste 8 Sur 0 -- -- 58
2020-10-17 03:00:00 5.5 3 Sudoeste 6 Sur 0 -- -- 62
2020-10-17 02:00:00 5.6 3 Sur 9 Sur 0 -- -- 61
2020-10-17 01:00:00 5.4 6 Sur 12 Sur 0 -- -- 63
2020-10-17 00:00:00 5.4 7 Sur 10 Sur 0 -- -- 63
2020-10-16 23:00:00 5.7 8 Sur 12 Sur 0 -- -- 61
2020-10-16 22:00:00 6.7 6 Sur 9 Sur 0 -- -- 57
2020-10-16 21:00:00 7.9 4 Sudeste 6 Sudeste 0 -- -- 53
2020-10-16 20:00:00 9.3 4 Nordeste 9 Nordeste 0 -- -- 50
2020-10-16 19:00:00 11.1 6 Nordeste 10 Norte 0 -- -- 46
2020-10-16 18:00:00 12.5 4 Nordeste 12 Nordeste 0 -- -- 41
2020-10-16 17:00:00 12.7 4 Norte 15 Nordeste 0 -- -- 41
2020-10-16 16:00:00 12.6 6 Este 14 Nordeste 0 -- -- 43
2020-10-16 15:00:00 11.9 4 Este 17 Este 0 -- -- 47
2020-10-16 14:00:00 11.1 10 Este 24 Este 0 -- -- 50
2020-10-16 13:00:00 9.9 14 Este 26 Este 0 -- -- 54
2020-10-16 12:00:00 8.9 12 Este 28 Sudeste 0 -- -- 60
2020-10-16 11:00:00 7.6 15 Sudeste 23 Este 0 -- -- 65
2020-10-16 10:00:00 5.4 5 Sur 11 Sur 0 -- -- 76
2020-10-16 09:00:00 1.5 8 Sur 12 Sur 0 -- -- 89
2020-10-16 08:00:00 0.6 4 Sudeste 9 Sudeste 0 -- -- 91
2020-10-16 07:00:00 1.1 5 Sudeste 10 Sudeste 0 -- -- 89
2020-10-16 06:00:00 1.4 3 Sur 9 Sudeste 0 -- -- 85
2020-10-16 05:00:00 2.5 7 Sudeste 10 Sudeste 0 -- -- 83
2020-10-16 04:00:00 2.6 7 Sudeste 10 Sudeste 0 -- -- 81
2020-10-16 03:00:00 2.6 4 Sudeste 7 Sudeste 0 -- -- 80
2020-10-16 02:00:00 3.5 4 Este 9 Este 0 -- -- 77
2020-10-16 01:00:00 4 8 Este 13 Este 0 -- -- 74
2020-10-16 00:00:00 4.6 8 Este 17 Este 0 -- -- 73
2020-10-15 23:00:00 6 12 Este 20 Este 0 -- -- 71
2020-10-15 22:00:00 8 15 Este 27 Este 0 -- -- 64
2020-10-15 21:00:00 9.2 5 Nordeste 9 Nordeste 0 -- -- 59
2020-10-15 20:00:00 10.6 2 Nordeste 14 Nordeste 0 -- -- 54
2020-10-15 19:00:00 11.8 13 Nordeste 18 Nordeste 0 -- -- 51
2020-10-15 18:00:00 13.3 14 Norte 22 Noroeste 0 -- -- 46
2020-10-15 17:00:00 12.2 11 Norte 24 Nordeste 0 -- -- 50
2020-10-15 16:00:00 13 13 Norte 22 Norte 0 -- -- 49
2020-10-15 15:00:00 12.4 8 Norte 22 Norte 0 -- -- 50
2020-10-15 14:00:00 11.7 9 Norte 26 Nordeste 0 -- -- 54
2020-10-15 13:00:00 10.3 9 Norte 17 Norte 0 -- -- 57
2020-10-15 12:00:00 9.5 6 Norte 13 Noroeste 0 -- -- 65
2020-10-15 11:00:00 7.9 4 Norte 9 Noroeste 0 -- -- 71
2020-10-15 10:00:00 5.7 4 Sudoeste 10 Sudoeste 0 -- -- 78
2020-10-15 09:00:00 2.6 6 Sudoeste 10 Sudoeste 0 -- -- 82
2020-10-15 08:00:00 2.4 7 Sudoeste 12 Oeste 0 -- -- 79
2020-10-15 07:00:00 2.8 10 Sudoeste 15 Sudoeste 0 -- -- 78
2020-10-15 06:00:00 3 11 Sudoeste 16 Sudoeste 0 -- -- 77
2020-10-15 05:00:00 2.3 8 Sudoeste 13 Sudoeste 0 -- -- 78
2020-10-15 04:00:00 3.2 6 Oeste 12 Sudoeste 0 -- -- 75
2020-10-15 03:00:00 3.2 8 Sudoeste 10 Sudoeste 0 -- -- 73
2020-10-15 02:00:00 3.9 6 Sudoeste 8 Sudoeste 0 -- -- 71
2020-10-15 01:00:00 5.5 4 Oeste 11 Noroeste 0 -- -- 65
2020-10-15 00:00:00 5.5 10 Noroeste 14 Norte 0 -- -- 65
2020-10-14 23:00:00 6.8 10 Norte 15 Noroeste 0 -- -- 61
2020-10-14 22:00:00 8 9 Noroeste 14 Norte 0 -- -- 57
2020-10-14 21:00:00 9 10 Noroeste 15 Noroeste 0 -- -- 52
2020-10-14 20:00:00 10.4 11 Noroeste 25 Norte 0 -- -- 49
2020-10-14 19:00:00 13.5 17 Norte 32 Norte 0 -- -- 39
2020-10-14 18:00:00 13.8 21 Norte 31 Noroeste 0 -- -- 39
2020-10-14 17:00:00 14.6 21 Noroeste 32 Noroeste 0 -- -- 42
2020-10-14 16:00:00 12.7 14 Norte 27 Noroeste 0 -- -- 47
2020-10-14 15:00:00 12.6 15 Norte 26 Norte 0 -- -- 48
2020-10-14 14:00:00 12 15 Norte 27 Noroeste 0 -- -- 50
2020-10-14 13:00:00 11 17 Noroeste 24 Noroeste 0 -- -- 57
2020-10-14 12:00:00 9.4 15 Noroeste 28 Noroeste 0 -- -- 64
2020-10-14 11:00:00 8.3 14 Oeste 24 Oeste 0 -- -- 68
2020-10-14 10:00:00 6.7 12 Oeste 17 Oeste 0 -- -- 79
2020-10-14 09:00:00 3.6 10 Sudoeste 16 Sudoeste 0 -- -- 91
2020-10-14 08:00:00 3.3 10 Sudoeste 15 Sudoeste 0 -- -- 90
2020-10-14 07:00:00 3.6 8 Sudoeste 10 Sudoeste 0 -- -- 86
2020-10-14 06:00:00 4.9 4 Noroeste 13 Noroeste 0 -- -- 83
2020-10-14 05:00:00 5.6 12 Noroeste 17 Noroeste 0 -- -- 81
2020-10-14 04:00:00 6.7 12 Noroeste 18 Noroeste 0 -- -- 76
2020-10-14 03:00:00 7.5 12 Noroeste 17 Noroeste 0 -- -- 73
2020-10-14 02:00:00 8.7 12 Noroeste 22 Noroeste 0 -- -- 68
2020-10-14 01:00:00 9.8 16 Noroeste 27 Noroeste 0 -- -- 65
2020-10-14 00:00:00 10.4 20 Noroeste 28 Noroeste 0 -- -- 63
2020-10-13 23:00:00 11.6 14 Noroeste 29 Noroeste 0 -- -- 65
2020-10-13 22:00:00 11.6 16 Noroeste 20 Noroeste 0 -- -- 69
2020-10-13 21:00:00 12 9 Oeste 16 Noroeste 0 -- -- 66
2020-10-13 20:00:00 14.5 14 Noroeste 36 Oeste 0 -- -- 56
2020-10-13 19:00:00 17.3 28 Oeste 45 Oeste 0 -- -- 49
2020-10-13 18:00:00 18.5 28 Oeste 45 Oeste 0 -- -- 46
2020-10-13 17:00:00 19.5 26 Noroeste 42 Noroeste 0 -- -- 44
2020-10-13 16:00:00 19.1 23 Oeste 35 Oeste 0 -- -- 48
2020-10-13 15:00:00 18.3 17 Noroeste 26 Noroeste 0 -- -- 54
2020-10-13 14:00:00 16.9 16 Noroeste 26 Oeste 0 -- -- 60
2020-10-13 13:00:00 16 17 Oeste 31 Oeste 0 -- -- 65
2020-10-13 12:00:00 14.8 21 Oeste 29 Oeste 0 -- -- 69
2020-10-13 11:00:00 13 19 Sudoeste 27 Oeste 0 -- -- 75
2020-10-13 10:00:00 10.5 18 Oeste 30 Oeste 0 -- -- 78
2020-10-13 09:00:00 8.9 16 Oeste 25 Oeste 0 -- -- 74
2020-10-13 08:00:00 8.4 10 Oeste 19 Sudoeste 0 -- -- 70
2020-10-13 07:00:00 9 11 Sudoeste 21 Sudoeste 0 -- -- 66
2020-10-13 06:00:00 9 13 Sudoeste 21 Sudoeste 0 -- -- 63
2020-10-13 05:00:00 9.2 15 Sudoeste 21 Oeste 0 -- -- 61
2020-10-13 04:00:00 -- -- -- -- -- -- -- -- --
2020-10-13 03:00:00 9.9 17 Oeste 26 Sudoeste 0 -- -- 59
2020-10-13 02:00:00 10 16 Sudoeste 23 Sudoeste 0 -- -- 58
2020-10-13 01:00:00 -- -- -- -- -- -- -- -- --
2020-10-13 00:00:00 9.9 9 Sudoeste 13 Sudoeste 0 -- -- 54
2020-10-12 23:00:00 8.8 4 Sudoeste 10 Sudoeste 0 -- -- 58
2020-10-12 22:00:00 8.9 4 Sudoeste 7 Sur 0 -- -- 57
2020-10-12 21:00:00 10.1 4 Sur 6 Sur 0 -- -- 53
2020-10-12 20:00:00 12.1 0 Calma 6 Nordeste 0 -- -- 47
2020-10-12 19:00:00 13.7 5 Norte 15 Norte 0 -- -- 44
2020-10-12 18:00:00 -- -- -- -- -- -- -- -- --
2020-10-12 17:00:00 14.1 12 Norte 20 Norte 0 -- -- 43
2020-10-12 16:00:00 13.7 9 Nordeste 27 Nordeste 0 -- -- 47
2020-10-12 15:00:00 13.1 10 Nordeste 22 Este 0 -- -- 52
2020-10-12 14:00:00 12.2 12 Este 28 Este 0 -- -- 56
2020-10-12 13:00:00 11.2 20 Este 30 Este 0 -- -- 58
2020-10-12 12:00:00 10.1 21 Este 31 Este 0 -- -- 65
2020-10-12 11:00:00 8.4 17 Este 26 Sudeste 0 -- -- 74
2020-10-12 10:00:00 6.5 14 Sudeste 19 Sudeste 0 -- -- 81
2020-10-12 09:00:00 3.8 3 Sudeste 12 Nordeste 0 -- -- 89
2020-10-12 08:00:00 3 4 Sudeste 11 Sudeste 0 -- -- 89
2020-10-12 07:00:00 3 4 Sudeste 9 Sudeste 0 -- -- 89
2020-10-12 06:00:00 3.2 7 Sudeste 9 Sudeste 0 -- -- 88
2020-10-12 05:00:00 3.6 4 Sudeste 9 Este 0 -- -- 88
2020-10-12 04:00:00 -- -- -- -- -- -- -- -- --
2020-10-12 03:00:00 4.8 9 Sudeste 12 Sudeste 0 -- -- 81
2020-10-12 02:00:00 4.7 9 Sudeste 16 Sudeste 0 -- -- 80
2020-10-12 01:00:00 5 10 Sudeste 14 Sudeste 0 -- -- 78
2020-10-12 00:00:00 6.3 9 Sudeste 13 Sudeste 0 -- -- 71
2020-10-11 23:00:00 7 8 Este 18 Norte 0 -- -- 68
2020-10-11 22:00:00 8.8 2 Noroeste 6 Noroeste 0 -- -- 61
2020-10-11 21:00:00 -- -- -- -- -- -- -- -- --
2020-10-11 20:00:00 -- -- -- -- -- -- -- -- --
2020-10-11 19:00:00 13.4 14 Nordeste 24 Nordeste 0 -- -- 47
2020-10-11 18:00:00 14.1 15 Nordeste 25 Nordeste 0 -- -- 45
2020-10-11 17:00:00 14.1 16 Nordeste 27 Nordeste 0 -- -- 47
2020-10-11 16:00:00 13.9 16 Este 29 Este 0 -- -- 47
2020-10-11 15:00:00 12.9 17 Nordeste 33 Nordeste 0 -- -- 53
2020-10-11 14:00:00 12 19 Este 32 Este 0 -- -- 57
2020-10-11 13:00:00 11 17 Este 30 Este 0 -- -- 60
2020-10-11 12:00:00 9.9 16 Este 30 Este 0 -- -- 65
2020-10-11 11:00:00 8.3 20 Este 30 Este 0 -- -- 71
2020-10-11 10:00:00 6.4 15 Este 19 Este 0 -- -- 88
2020-10-11 09:00:00 4.1 9 Sudeste 13 Este 0 -- -- 96
2020-10-11 08:00:00 3.7 10 Este 15 Este 0 -- -- 95
2020-10-11 07:00:00 4.2 10 Este 17 Este 0 -- -- 94
2020-10-11 06:00:00 4.8 6 Sudeste 13 Sudeste 0 -- -- 95
2020-10-11 05:00:00 4.4 8 Este 12 Este 0 -- -- 91
2020-10-11 04:00:00 5.6 6 Este 14 Este 0 -- -- 89
2020-10-11 03:00:00 6.1 8 Este 13 Nordeste 0 -- -- 84
2020-10-11 02:00:00 6.7 8 Nordeste 14 Este 0 -- -- 82
2020-10-11 01:00:00 7.3 11 Este 19 Este 0 -- -- 78
2020-10-11 00:00:00 8.5 9 Sudeste 16 Este 0 -- -- 73
2020-10-10 23:00:00 8.6 12 Este 19 Este 0 -- -- 75
2020-10-10 22:00:00 10 8 Este 21 Este 0 -- -- 70
2020-10-10 21:00:00 12 13 Este 21 Nordeste 0 -- -- 67
2020-10-10 20:00:00 14.2 15 Nordeste 37 Nordeste 0 -- -- 62
2020-10-10 19:00:00 16.4 25 Nordeste 35 Nordeste 0 -- -- 58
2020-10-10 18:00:00 18.7 21 Nordeste 31 Nordeste 0 -- -- 52
2020-10-10 17:00:00 19.5 14 Nordeste 27 Nordeste 0 -- -- 48
2020-10-10 16:00:00 18.9 17 Nordeste 32 Este 0 -- -- 50
2020-10-10 15:00:00 18.5 14 Nordeste 26 Nordeste 0 -- -- 56
2020-10-10 14:00:00 16.7 14 Nordeste 25 Este 0 -- -- 65
2020-10-10 13:00:00 15.7 14 Nordeste 26 Nordeste 0 -- -- 69
2020-10-10 12:00:00 14.4 12 Este 18 Este 0 -- -- 73
2020-10-10 11:00:00 12.3 7 Este 13 Este 0 -- -- 84
2020-10-10 10:00:00 10.1 6 Sudeste 13 Sudeste 0 -- -- 95
2020-10-10 09:00:00 7.9 0 Calma 4 Norte 0 -- -- 94
2020-10-10 08:00:00 7.3 0 Calma 4 Sur 0 -- -- 88
2020-10-10 07:00:00 7.7 0 Calma 14 Norte 0 -- -- 86
2020-10-10 06:00:00 8.7 4 Oeste 7 Noroeste 0 -- -- 76
2020-10-10 05:00:00 9 7 Noroeste 12 Nordeste 0 -- -- 75
2020-10-10 04:00:00 11.4 7 Oeste 12 Sudoeste 0 -- -- 67
2020-10-10 03:00:00 12.8 7 Sudoeste 12 Sudoeste 0 -- -- 62
2020-10-10 02:00:00 13.3 7 Sudoeste 14 Sudoeste 0 -- -- 59
2020-10-10 01:00:00 13.7 8 Sudoeste 13 Sudoeste 0 -- -- 55
2020-10-10 00:00:00 14.5 10 Oeste 14 Sudoeste 0 -- -- 51
2020-10-09 23:00:00 15 7 Oeste 11 Sudoeste 0 -- -- 48
2020-10-09 22:00:00 15.8 4 Norte 11 Oeste 0 -- -- 47
2020-10-09 21:00:00 18.1 7 Oeste 10 Noroeste 0 -- -- 40
2020-10-09 20:00:00 19.2 6 Noroeste 14 Noroeste 0 -- -- 38
2020-10-09 19:00:00 22.4 11 Noroeste 20 Noroeste 0 -- -- 32
2020-10-09 18:00:00 23.3 13 Noroeste 24 Noroeste 0 -- -- 31
2020-10-09 17:00:00 23.5 14 Noroeste 24 Noroeste 0 -- -- 36
2020-10-09 16:00:00 23.4 15 Noroeste 27 Oeste 0 -- -- 33
2020-10-09 15:00:00 22.9 12 Noroeste 24 Oeste 0 -- -- 35
2020-10-09 14:00:00 22 12 Noroeste 21 Oeste 0 -- -- 40
2020-10-09 13:00:00 21.3 8 Noroeste 15 Noroeste 0 -- -- 43
2020-10-09 12:00:00 20.1 6 Oeste 12 Oeste 0 -- -- 48
2020-10-09 11:00:00 18.6 7 Sudoeste 10 Sudoeste 0 -- -- 47
2020-10-09 10:00:00 15.1 5 Sudoeste 9 Oeste 0 -- -- 57
2020-10-09 09:00:00 12.2 6 Sudoeste 12 Sudoeste 0 -- -- 64
2020-10-09 08:00:00 12.5 9 Sudoeste 12 Sudoeste 0 -- -- 62
2020-10-09 07:00:00 12 5 Sudoeste 12 Sudoeste 0 -- -- 65
2020-10-09 06:00:00 13.5 9 Sudoeste 14 Sudoeste 0 -- -- 59
2020-10-09 05:00:00 14.5 8 Sudoeste 14 Sudoeste 0 -- -- 57
2020-10-09 04:00:00 14.6 9 Sudoeste 15 Sudoeste 0 -- -- 57
2020-10-09 03:00:00 13.4 8 Sudoeste 12 Sudoeste 0 -- -- 61
2020-10-09 02:00:00 12.4 5 Sudoeste 9 Sudoeste 0 -- -- 66
2020-10-09 01:00:00 13.1 0 Calma 9 Oeste 0 -- -- 67
2020-10-09 00:00:00 15 6 Oeste 17 Norte 0 -- -- 60
2020-10-08 23:00:00 16.9 7 Sudoeste 14 Sudoeste 0 -- -- 54
2020-10-08 22:00:00 17.2 9 Sudoeste 15 Sudoeste 0 -- -- 53
2020-10-08 21:00:00 17.9 8 Sudoeste 11 Sudoeste 0 -- -- 47
2020-10-08 20:00:00 20.6 0 Calma 10 Oeste 0 -- -- 42
2020-10-08 19:00:00 22.1 9 Oeste 27 Oeste 0 -- -- 36
2020-10-08 18:00:00 24.3 21 Oeste 34 Oeste 0 -- -- 30
2020-10-08 17:00:00 25.4 12 Oeste 28 Oeste 0 -- -- 31
2020-10-08 16:00:00 23.9 11 Oeste 27 Noroeste 0 -- -- 34
2020-10-08 15:00:00 23.7 13 Oeste 22 Oeste 0 -- -- 33
2020-10-08 14:00:00 23.6 7 Noroeste 16 Oeste 0 -- -- 36
2020-10-08 13:00:00 22.8 6 Oeste 11 Oeste 0 -- -- 38
2020-10-08 12:00:00 20.8 8 Sudoeste 13 Oeste 0 -- -- 47
2020-10-08 11:00:00 18.8 6 Sudoeste 14 Sudoeste 0 -- -- 57
2020-10-08 10:00:00 15.8 9 Sudoeste 14 Oeste 0 -- -- 67
2020-10-08 09:00:00 11.4 3 Este 13 Sudoeste 0 -- -- 84
2020-10-08 08:00:00 13.2 12 Sudoeste 19 Sudoeste 0 -- -- 75
2020-10-08 07:00:00 13.7 13 Sudoeste 19 Sudoeste 0 -- -- 75
2020-10-08 06:00:00 11.3 6 Sudoeste 10 Sudoeste 0 -- -- 83
2020-10-08 05:00:00 12 3 Sur 5 Este 0 -- -- 81
2020-10-08 04:00:00 13.5 3 Sudeste 9 Sudeste 0 -- -- 75
2020-10-08 03:00:00 13.6 5 Sudeste 9 Sudeste 0 -- -- 76
2020-10-08 02:00:00 13.9 4 Sudeste 9 Sur 0 -- -- 74
2020-10-08 01:00:00 14.7 6 Sur 10 Sur 0 -- -- 71
2020-10-08 00:00:00 14.5 5 Sur 8 Sudeste 0 -- -- 73
2020-10-07 23:00:00 15.4 4 Sudeste 6 Sudeste 0 -- -- 70
2020-10-07 22:00:00 16 0 Calma 2 Norte 0 -- -- 66
2020-10-07 21:00:00 16.8 0 Calma 6 Nordeste 0 -- -- 65
2020-10-07 20:00:00 19.1 6 Nordeste 12 Nordeste 0 -- -- 57
2020-10-07 19:00:00 21.3 9 Nordeste 14 Nordeste 0 -- -- 51
2020-10-07 18:00:00 22.4 8 Nordeste 17 Este 0 -- -- 48
2020-10-07 17:00:00 22.2 10 Este 17 Este 0 -- -- 52
2020-10-07 16:00:00 21.6 7 Este 26 Este 0 -- -- 53
2020-10-07 15:00:00 20.8 9 Este 20 Este 0 -- -- 56
2020-10-07 14:00:00 19.6 10 Este 18 Este 0 -- -- 60
2020-10-07 13:00:00 18.6 9 Este 22 Este 0 -- -- 65
2020-10-07 12:00:00 17.6 8 Este 16 Este 0 -- -- 66
2020-10-07 11:00:00 16.4 4 Sudeste 9 Sur 0 -- -- 71
2020-10-07 10:00:00 13.6 3 Sur 11 Sur 0 -- -- 87
2020-10-07 09:00:00 11.1 6 Sur 14 Sur 0 -- -- 94
2020-10-07 08:00:00 11.3 6 Sudoeste 13 Sur 0 -- -- 94
2020-10-07 07:00:00 11.4 6 Sudoeste 14 Sudoeste 0 -- -- 92
2020-10-07 06:00:00 10.9 8 Sudoeste 13 Oeste 0 -- -- 94
2020-10-07 05:00:00 10.5 10 Sudoeste 14 Sudoeste 0 -- -- 94
2020-10-07 04:00:00 10.8 10 Sudoeste 16 Oeste 0 -- -- 90
2020-10-07 03:00:00 11.5 12 Sudoeste 19 Sudoeste 0 -- -- 87
2020-10-07 02:00:00 12.4 15 Oeste 21 Sudoeste 0 -- -- 82
2020-10-07 01:00:00 12.9 14 Sudoeste 20 Sudoeste 0 -- -- 79
2020-10-07 00:00:00 13.9 14 Sudoeste 21 Sudoeste 0 -- -- 74
2020-10-06 23:00:00 14.2 5 Sudoeste 18 Sudoeste 0 -- -- 73
2020-10-06 22:00:00 15 14 Oeste 17 Sudoeste 0 -- -- 73
2020-10-06 21:00:00 16.2 10 Oeste 17 Oeste 0 -- -- 69
2020-10-06 20:00:00 17.5 10 Oeste 24 Oeste 0 -- -- 65
2020-10-06 19:00:00 20 19 Noroeste 32 Oeste 0 -- -- 59
2020-10-06 18:00:00 21.2 23 Noroeste 34 Oeste 0 -- -- 57
2020-10-06 17:00:00 21.7 23 Noroeste 32 Oeste 0 -- -- 54
2020-10-06 16:00:00 21.9 18 Oeste 38 Oeste 0 -- -- 55
2020-10-06 15:00:00 20.7 23 Oeste 38 Oeste 0 -- -- 60
2020-10-06 14:00:00 19.6 23 Oeste 40 Oeste 0 -- -- 65
2020-10-06 13:00:00 18.3 24 Oeste 38 Oeste 0 -- -- 69
2020-10-06 12:00:00 16.8 22 Oeste 33 Sudoeste 0 -- -- 77
2020-10-06 11:00:00 14.9 19 Oeste 31 Oeste 0 -- -- 85
2020-10-06 10:00:00 13 17 Oeste 28 Oeste 0 -- -- 93
2020-10-06 09:00:00 12.4 16 Oeste 28 Oeste 0 -- -- 94
2020-10-06 08:00:00 12.4 15 Sudoeste 35 Oeste 0 -- -- 91
2020-10-06 07:00:00 12.1 15 Oeste 32 Oeste 0 -- -- 91
2020-10-06 06:00:00 12.8 17 Oeste 32 Oeste 0 -- -- 88
2020-10-06 05:00:00 12.4 15 Sudoeste 30 Oeste 0 -- -- 88
2020-10-06 04:00:00 12.9 17 Oeste 31 Oeste 0 -- -- 86
2020-10-06 03:00:00 13.1 19 Oeste 27 Oeste 0 -- -- 85
2020-10-06 02:00:00 13.3 16 Oeste 27 Sudoeste 0 -- -- 82
2020-10-06 01:00:00 13.5 17 Oeste 31 Oeste 0 -- -- 77
2020-10-06 00:00:00 13.7 14 Oeste 28 Oeste 0 -- -- 71
2020-10-05 23:00:00 13.4 16 Oeste 27 Oeste 0 -- -- 72
2020-10-05 22:00:00 12.8 10 Oeste 23 Oeste 0 -- -- 72
2020-10-05 21:00:00 13 13 Oeste 27 Oeste 0 -- -- 71
2020-10-05 20:00:00 13.6 16 Oeste 31 Noroeste 0 -- -- 65
2020-10-05 19:00:00 15.9 18 Oeste 36 Oeste 0 -- -- 55
2020-10-05 18:00:00 16.1 27 Oeste 40 Oeste 0 -- -- 53
2020-10-05 17:00:00 16.2 27 Noroeste 41 Noroeste 0 -- -- 50
2020-10-05 16:00:00 15.7 24 Oeste 39 Oeste 0 -- -- 50
2020-10-05 15:00:00 14.8 24 Oeste 38 Oeste 0 -- -- 53
2020-10-05 14:00:00 13.4 22 Oeste 35 Oeste 0 -- -- 58
2020-10-05 13:00:00 12.2 20 Oeste 32 Oeste 0 -- -- 63
2020-10-05 12:00:00 11.5 19 Oeste 34 Oeste 0 -- -- 65
2020-10-05 11:00:00 10.3 22 Oeste 38 Oeste 0 -- -- 76
2020-10-05 10:00:00 8.8 23 Oeste 32 Oeste 0 -- -- 84
2020-10-05 09:00:00 7.1 17 Oeste 27 Noroeste 0 -- -- 89
2020-10-05 08:00:00 6.8 16 Oeste 33 Oeste 0 -- -- 90
2020-10-05 07:00:00 7.6 16 Oeste 28 Oeste 0 -- -- 88
2020-10-05 06:00:00 8.2 19 Oeste 31 Oeste 0 -- -- 85
2020-10-05 05:00:00 8.1 17 Oeste 31 Oeste 0 -- -- 84
2020-10-05 04:00:00 7.2 18 Oeste 31 Oeste 0 -- -- 85
2020-10-05 03:00:00 7.6 19 Oeste 32 Oeste 0 -- -- 83
2020-10-05 02:00:00 8.1 21 Oeste 35 Oeste 0 -- -- 84
2020-10-05 01:00:00 8.6 17 Oeste 35 Oeste 0 -- -- 81
2020-10-05 00:00:00 9.1 23 Oeste 38 Oeste 0 -- -- 78
2020-10-04 23:00:00 10.3 18 Oeste 32 Oeste 0 -- -- 70
2020-10-04 22:00:00 10.7 20 Oeste 37 Oeste 0 -- -- 69
2020-10-04 21:00:00 11.3 27 Oeste 35 Oeste 0 -- -- 67
2020-10-04 20:00:00 11.6 24 Oeste 44 Oeste 0 -- -- 64
2020-10-04 19:00:00 13.6 37 Oeste 49 Oeste 0 -- -- 54
2020-10-04 18:00:00 13.9 30 Oeste 51 Oeste 0 -- -- 51
2020-10-04 17:00:00 14.4 40 Oeste 58 Oeste 0 -- -- 46
2020-10-04 16:00:00 14.8 36 Oeste 57 Oeste 0 -- -- 49
2020-10-04 15:00:00 13.4 38 Oeste 55 Oeste 0 -- -- 54
2020-10-04 14:00:00 13 41 Oeste 56 Oeste 0 -- -- 53
2020-10-04 13:00:00 12.4 32 Oeste 50 Oeste 0 -- -- 65
2020-10-04 12:00:00 10.9 29 Oeste 45 Oeste 0 -- -- 83
2020-10-04 11:00:00 8.7 33 Oeste 58 Oeste 0.2 -- -- 94
2020-10-04 10:00:00 9.8 30 Oeste 50 Oeste 0 -- -- 83
2020-10-04 09:00:00 9 23 Oeste 42 Sudoeste 0 -- -- 81
2020-10-04 08:00:00 8.1 18 Sudoeste 35 Oeste 0 -- -- 84
2020-10-04 07:00:00 7.7 22 Oeste 36 Sudoeste 0 -- -- 85
2020-10-04 06:00:00 7 19 Sudoeste 31 Oeste 0 -- -- 88
2020-10-04 05:00:00 7 19 Oeste 40 Oeste 0 -- -- 86
2020-10-04 04:00:00 7.1 19 Oeste 32 Oeste 0 -- -- 86
2020-10-04 03:00:00 7.6 18 Oeste 28 Oeste 0 -- -- 84
2020-10-04 02:00:00 8.5 17 Oeste 31 Oeste 0 -- -- 79
2020-10-04 01:00:00 8.2 14 Oeste 24 Oeste 0 -- -- 80
2020-10-04 00:00:00 7.5 15 Oeste 32 Oeste 0 -- -- 80
2020-10-03 23:00:00 8.4 14 Sudoeste 32 Oeste 0 -- -- 74
2020-10-03 22:00:00 9.3 22 Oeste 32 Oeste 0 -- -- 70
2020-10-03 21:00:00 9.8 16 Oeste 31 Oeste 0 -- -- 66
2020-10-03 20:00:00 10.6 19 Oeste 41 Oeste 0 -- -- 59
2020-10-03 19:00:00 12.2 30 Oeste 42 Oeste 0 -- -- 52
2020-10-03 18:00:00 12.1 31 Oeste 42 Oeste 0 -- -- 51
2020-10-03 17:00:00 12 30 Oeste 54 Oeste 0 -- -- 52
2020-10-03 16:00:00 11.4 32 Oeste 46 Oeste 0 -- -- 54
2020-10-03 15:00:00 10.8 31 Oeste 46 Oeste 0 -- -- 59
2020-10-03 14:00:00 11 32 Oeste 49 Oeste 0 -- -- 61
2020-10-03 13:00:00 10.2 27 Oeste 42 Oeste 0 -- -- 67
2020-10-03 12:00:00 9 31 Oeste 43 Oeste 0 -- -- 71
2020-10-03 11:00:00 7.7 32 Oeste 44 Oeste 0 -- -- 78
2020-10-03 10:00:00 6 25 Oeste 39 Oeste 0 -- -- 87
2020-10-03 09:00:00 4.7 21 Oeste 34 Oeste 0 -- -- 92
2020-10-03 08:00:00 4.5 22 Oeste 39 Oeste 0 -- -- 92
2020-10-03 07:00:00 4.3 20 Oeste 36 Oeste 0 -- -- 92
2020-10-03 06:00:00 4.5 25 Oeste 41 Oeste 0 -- -- 91
2020-10-03 05:00:00 4.9 24 Oeste 35 Oeste 0 -- -- 89
2020-10-03 04:00:00 5.3 23 Oeste 41 Oeste 0 -- -- 87
2020-10-03 03:00:00 6 30 Oeste 45 Oeste 0 -- -- 85
2020-10-03 02:00:00 5.8 22 Oeste 42 Oeste 0 -- -- 85
2020-10-03 01:00:00 5.9 28 Oeste 44 Oeste 0 -- -- 85
2020-10-03 00:00:00 5.7 32 Oeste 45 Oeste 0 -- -- 82
2020-10-02 23:00:00 6 23 Oeste 39 Oeste 0 -- -- 82
2020-10-02 22:00:00 6.1 24 Oeste 39 Oeste 0 -- -- 77
2020-10-02 21:00:00 6.9 27 Oeste 43 Noroeste 0 -- -- 75
2020-10-02 20:00:00 8.1 32 Oeste 53 Oeste 0 -- -- 67
2020-10-02 19:00:00 9.5 39 Noroeste 62 Oeste 0 -- -- 60
2020-10-02 18:00:00 10.1 43 Noroeste 63 Noroeste 0 -- -- 59
2020-10-02 17:00:00 10.3 37 Noroeste 55 Oeste 0 -- -- 58
2020-10-02 16:00:00 10.2 43 Noroeste 60 Oeste 0 -- -- 59
2020-10-02 15:00:00 10.8 44 Oeste 59 Oeste 0 -- -- 58
2020-10-02 14:00:00 9.4 36 Oeste 53 Noroeste 0 -- -- 74
2020-10-02 13:00:00 8.7 44 Noroeste 65 Oeste 0.2 -- -- 77
2020-10-02 12:00:00 8.1 35 Noroeste 66 Noroeste 2 -- -- 93
2020-10-02 11:00:00 10.1 41 Oeste 70 Oeste 0.4 -- -- 93
2020-10-02 10:00:00 11.6 43 Oeste 72 Oeste 1.2 -- -- 93
2020-10-02 09:00:00 12.2 52 Oeste 74 Sudoeste 4.8 -- -- 94
2020-10-02 08:00:00 12.1 36 Oeste 67 Oeste 1.6 -- -- 94
2020-10-02 07:00:00 13.1 37 Oeste 71 Oeste 0 -- -- 82
2020-10-02 06:00:00 13.1 45 Oeste 76 Sudoeste 0 -- -- 81
2020-10-02 05:00:00 13.7 40 Oeste 63 Sudoeste 0 -- -- 75
2020-10-02 04:00:00 13.5 36 Oeste 54 Oeste 0 -- -- 73
2020-10-02 03:00:00 13.1 31 Sudoeste 51 Oeste 0 -- -- 72
2020-10-02 02:00:00 12.6 30 Oeste 46 Oeste 0 -- -- 71
2020-10-02 01:00:00 12.1 27 Oeste 53 Oeste 0 -- -- 72
2020-10-02 00:00:00 12.3 26 Oeste 43 Oeste 0 -- -- 72
2020-10-01 23:00:00 12.8 23 Oeste 42 Oeste 0 -- -- 70
2020-10-01 22:00:00 13.5 22 Oeste 42 Oeste 0 -- -- 64
2020-10-01 21:00:00 14.3 23 Oeste 39 Oeste 0 -- -- 60
2020-10-01 20:00:00 15.4 28 Oeste 45 Oeste 0 -- -- 55
2020-10-01 19:00:00 17.1 36 Oeste 45 Oeste 0 -- -- 49
2020-10-01 18:00:00 17.7 31 Oeste 45 Oeste 0 -- -- 47
2020-10-01 17:00:00 18 28 Oeste 42 Oeste 0 -- -- 47
2020-10-01 16:00:00 17.7 26 Oeste 37 Oeste 0 -- -- 49
2020-10-01 15:00:00 16.8 24 Oeste 41 Oeste 0 -- -- 52
2020-10-01 14:00:00 15.4 22 Oeste 37 Oeste 0 -- -- 60
2020-10-01 13:00:00 14.5 24 Oeste 36 Oeste 0 -- -- 66
2020-10-01 12:00:00 12.8 20 Oeste 32 Oeste 0 -- -- 84
2020-10-01 11:00:00 12.1 17 Oeste 33 Oeste 0 -- -- 84
2020-10-01 10:00:00 12.2 20 Oeste 30 Oeste 0 -- -- 81
2020-10-01 09:00:00 10.9 13 Sudoeste 24 Sudoeste 0 -- -- 79
2020-10-01 08:00:00 9.8 16 Oeste 24 Sudoeste 0 -- -- 85
2020-10-01 07:00:00 9.1 18 Oeste 28 Oeste 0 -- -- 91
2020-10-01 06:00:00 9.9 19 Oeste 26 Oeste 0 -- -- 87
2020-10-01 05:00:00 10.5 18 Oeste 31 Sudoeste 0 -- -- 90
2020-10-01 04:00:00 11.2 21 Oeste 31 Oeste 0 -- -- 90
2020-10-01 03:00:00 12 14 Oeste 20 Oeste 0 -- -- 82
2020-10-01 02:00:00 13.2 11 Sudoeste 21 Sudoeste 0 -- -- 76
2020-10-01 01:00:00 14 15 Sudoeste 22 Sudoeste 0 -- -- 70
2020-10-01 00:00:00 15.1 14 Oeste 22 Oeste 0 -- -- 60
2020-09-30 23:00:00 15.6 15 Oeste 22 Oeste 0 -- -- 52
2020-09-30 22:00:00 16.7 14 Oeste 23 Oeste 0 -- -- 44
2020-09-30 21:00:00 18.5 15 Oeste 23 Oeste 0 -- -- 37
2020-09-30 20:00:00 20.1 16 Oeste 32 Noroeste 0 -- -- 35
2020-09-30 19:00:00 23 23 Noroeste 33 Oeste 0 -- -- 27
2020-09-30 18:00:00 23.9 25 Oeste 36 Noroeste 0 -- -- 29
2020-09-30 17:00:00 24.4 17 Noroeste 31 Oeste 0 -- -- 30
2020-09-30 16:00:00 23.9 17 Oeste 30 Oeste 0 -- -- 34
2020-09-30 15:00:00 23.3 15 Noroeste 33 Oeste 0 -- -- 32
2020-09-30 14:00:00 22.6 11 Oeste 23 Oeste 0 -- -- 32
2020-09-30 13:00:00 21.7 9 Oeste 15 Oeste 0 -- -- 35
2020-09-30 12:00:00 20.3 6 Oeste 12 Oeste 0 -- -- 35
2020-09-30 11:00:00 18.6 6 Oeste 12 Sudoeste 0 -- -- 40
2020-09-30 10:00:00 16.4 6 Sudoeste 13 Sudoeste 0 -- -- 44
2020-09-30 09:00:00 12.4 9 Sudoeste 13 Sudoeste 0 -- -- 51
2020-09-30 08:00:00 12.4 9 Sudoeste 13 Sudoeste 0 -- -- 49
2020-09-30 07:00:00 13.9 7 Sudoeste 14 Sudoeste 0 -- -- 45
2020-09-30 06:00:00 13.8 10 Sudoeste 15 Sudoeste 0 -- -- 45
2020-09-30 05:00:00 13.1 10 Sudoeste 15 Sudoeste 0 -- -- 48
2020-09-30 04:00:00 13.9 8 Sudoeste 11 Sudoeste 0 -- -- 46
2020-09-30 03:00:00 13.8 7 Sudoeste 9 Sudoeste 0 -- -- 46
2020-09-30 02:00:00 13 6 Sudoeste 8 Sudoeste 0 -- -- 48
2020-09-30 01:00:00 13.1 5 Sudoeste 6 Sudoeste 0 -- -- 48
2020-09-30 00:00:00 14.1 2 Sur 6 Sur 0 -- -- 44